createdAt,value
2017-11-09T00:00:15.819Z,8.03
2017-11-09T00:01:15.836Z,7.90
2017-11-09T00:02:15.860Z,7.98
2017-11-09T00:03:15.867Z,7.94
2017-11-09T00:04:15.894Z,7.90
2017-11-09T00:05:15.895Z,7.97
2017-11-09T00:06:15.912Z,7.93
2017-11-09T00:07:15.927Z,8.00
2017-11-09T00:08:15.952Z,7.95
2017-11-09T00:09:15.960Z,7.93
2017-11-09T00:10:15.973Z,7.97
2017-11-09T00:11:15.989Z,7.93
2017-11-09T00:12:16.003Z,7.93
2017-11-09T00:13:16.020Z,7.93
2017-11-09T00:14:16.034Z,7.90
2017-11-09T00:15:16.054Z,7.88
2017-11-09T00:16:16.067Z,7.93
2017-11-09T00:17:16.080Z,7.97
2017-11-09T00:18:16.097Z,7.91
2017-11-09T00:19:16.112Z,7.93
2017-11-09T00:20:16.128Z,7.85
2017-11-09T00:21:16.143Z,7.87
2017-11-09T00:22:16.158Z,7.82
2017-11-09T00:23:16.171Z,7.79
2017-11-09T00:24:16.187Z,7.75
2017-11-09T00:25:16.204Z,7.79
2017-11-09T00:26:16.218Z,7.72
2017-11-09T00:27:16.233Z,7.67
2017-11-09T00:28:16.251Z,7.60
2017-11-09T00:29:16.265Z,7.47
2017-11-09T00:30:16.280Z,7.36
2017-11-09T00:31:16.303Z,7.35
2017-11-09T00:32:16.308Z,7.57
2017-11-09T00:33:16.328Z,7.40
2017-11-09T00:34:16.345Z,7.38
2017-11-09T00:35:16.354Z,7.38
2017-11-09T00:36:16.369Z,7.33
2017-11-09T00:37:16.390Z,7.38
2017-11-09T00:38:16.401Z,7.18
2017-11-09T00:39:16.448Z,7.32
2017-11-09T00:40:16.433Z,7.40
2017-11-09T00:41:16.448Z,7.48
2017-11-09T00:42:16.461Z,7.61
2017-11-09T00:43:16.477Z,7.61
2017-11-09T00:44:16.493Z,7.72
2017-11-09T00:45:16.513Z,7.77
2017-11-09T00:46:16.524Z,7.82
2017-11-09T00:47:16.538Z,7.75
2017-11-09T00:48:16.552Z,7.77
2017-11-09T00:49:16.568Z,7.67
2017-11-09T00:50:16.585Z,7.69
2017-11-09T00:51:16.603Z,7.70
2017-11-09T00:52:16.616Z,7.76
2017-11-09T00:53:16.630Z,7.87
2017-11-09T00:54:16.657Z,7.95
2017-11-09T00:55:16.660Z,7.94
2017-11-09T00:56:16.680Z,8.00
2017-11-09T00:57:16.692Z,8.05
2017-11-09T00:58:16.715Z,8.18
2017-11-09T00:59:16.725Z,8.10
2017-11-09T01:00:16.738Z,8.15
2017-11-09T01:01:16.753Z,8.19
2017-11-09T01:02:16.770Z,8.24
2017-11-09T01:03:16.782Z,8.18
2017-11-09T01:04:16.800Z,8.19
2017-11-09T01:05:16.814Z,8.31
2017-11-09T01:06:16.831Z,8.33
2017-11-09T01:07:16.845Z,8.31
2017-11-09T01:08:16.862Z,8.34
2017-11-09T01:09:16.877Z,8.24
2017-11-09T01:10:16.891Z,8.24
2017-11-09T01:11:16.912Z,8.31
2017-11-09T01:12:16.924Z,8.16
2017-11-09T01:13:16.937Z,8.15
2017-11-09T01:14:16.960Z,8.33
2017-11-09T01:15:16.968Z,8.30
2017-11-09T01:16:16.984Z,8.34
2017-11-09T01:17:17.003Z,8.38
2017-11-09T01:18:17.019Z,8.41
2017-11-09T01:19:17.032Z,8.42
2017-11-09T01:20:17.049Z,8.42
2017-11-09T01:21:17.066Z,8.30
2017-11-09T01:22:17.078Z,8.16
2017-11-09T01:23:17.095Z,8.03
2017-11-09T01:24:17.108Z,8.13
2017-11-09T01:25:17.131Z,7.85
2017-11-09T01:26:17.144Z,7.80
2017-11-09T01:27:17.154Z,7.91
2017-11-09T01:28:17.170Z,7.90
2017-11-09T01:29:17.189Z,7.94
2017-11-09T01:30:17.205Z,8.00
2017-11-09T01:31:17.218Z,7.90
2017-11-09T01:32:17.232Z,7.83
2017-11-09T01:33:17.252Z,7.98
2017-11-09T01:34:17.270Z,8.08
2017-11-09T01:35:17.280Z,8.13
2017-11-09T01:36:17.297Z,8.33
2017-11-09T01:37:17.315Z,8.45
2017-11-09T01:38:17.330Z,8.49
2017-11-09T01:39:17.344Z,8.48
2017-11-09T01:40:17.367Z,8.45
2017-11-09T01:41:17.373Z,8.60
2017-11-09T01:42:17.414Z,8.48
2017-11-09T01:43:17.407Z,8.42
2017-11-09T01:44:17.420Z,8.33
2017-11-09T01:45:17.436Z,8.34
2017-11-09T01:46:17.456Z,8.48
2017-11-09T01:47:17.470Z,8.28
2017-11-09T01:48:17.483Z,8.38
2017-11-09T01:49:17.499Z,8.46
2017-11-09T01:50:17.515Z,8.52
2017-11-09T01:51:17.529Z,8.51
2017-11-09T01:52:17.544Z,8.67
2017-11-09T01:53:17.559Z,8.67
2017-11-09T01:54:17.575Z,8.74
2017-11-09T01:55:17.590Z,8.79
2017-11-09T01:56:17.619Z,8.87
2017-11-09T01:57:17.622Z,8.84
2017-11-09T01:58:17.636Z,8.91
2017-11-09T01:59:17.657Z,8.89
2017-11-09T02:00:17.674Z,8.82
2017-11-09T02:01:17.684Z,8.99
2017-11-09T02:02:17.702Z,9.03
2017-11-09T02:03:17.715Z,9.03
2017-11-09T02:04:17.730Z,8.89
2017-11-09T02:05:17.750Z,8.88
2017-11-09T02:06:17.763Z,8.92
2017-11-09T02:07:17.779Z,8.91
2017-11-09T02:08:17.795Z,9.00
2017-11-09T02:09:17.813Z,8.99
2017-11-09T02:10:17.826Z,9.02
2017-11-09T02:11:17.841Z,9.02
2017-11-09T02:12:17.857Z,9.04
2017-11-09T02:13:17.873Z,9.08
2017-11-09T02:14:17.892Z,9.18
2017-11-09T02:15:17.910Z,9.19
2017-11-09T02:16:17.919Z,9.14
2017-11-09T02:17:17.935Z,9.16
2017-11-09T02:18:17.953Z,9.19
2017-11-09T02:19:17.968Z,9.28
2017-11-09T02:20:17.985Z,9.14
2017-11-09T02:21:17.999Z,9.25
2017-11-09T02:22:18.015Z,9.21
2017-11-09T02:23:18.029Z,9.28
2017-11-09T02:24:18.048Z,9.19
2017-11-09T02:25:18.062Z,9.28
2017-11-09T02:26:18.078Z,9.18
2017-11-09T02:27:18.098Z,9.31
2017-11-09T02:28:18.110Z,9.32
2017-11-09T02:29:18.129Z,9.34
2017-11-09T02:30:18.146Z,9.25
2017-11-09T02:31:18.157Z,9.26
2017-11-09T02:32:18.175Z,9.26
2017-11-09T02:33:18.192Z,9.26
2017-11-09T02:34:18.209Z,9.23
2017-11-09T02:35:18.224Z,9.32
2017-11-09T02:36:18.237Z,9.36
2017-11-09T02:37:18.252Z,9.31
2017-11-09T02:38:18.272Z,9.32
2017-11-09T02:39:18.290Z,9.34
2017-11-09T02:40:18.312Z,9.23
2017-11-09T02:41:18.329Z,9.22
2017-11-09T02:42:18.333Z,9.08
2017-11-09T02:43:18.349Z,9.13
2017-11-09T02:44:18.364Z,9.10
2017-11-09T02:45:18.385Z,9.00
2017-11-09T02:46:18.398Z,9.11
2017-11-09T02:47:18.433Z,9.21
2017-11-09T02:48:18.441Z,9.21
2017-11-09T02:49:18.446Z,9.19
2017-11-09T02:50:18.463Z,9.22
2017-11-09T02:51:18.484Z,9.23
2017-11-09T02:52:18.504Z,9.26
2017-11-09T02:53:18.513Z,9.36
2017-11-09T02:54:18.525Z,9.37
2017-11-09T02:55:18.542Z,9.25
2017-11-09T02:56:18.562Z,9.36
2017-11-09T02:57:18.573Z,9.34
2017-11-09T02:58:18.592Z,9.34
2017-11-09T02:59:18.605Z,9.31
2017-11-09T03:00:18.621Z,9.36
2017-11-09T03:01:18.645Z,9.36
2017-11-09T03:02:18.654Z,9.25
2017-11-09T03:03:18.668Z,9.18
2017-11-09T03:04:18.688Z,9.23
2017-11-09T03:05:18.706Z,9.25
2017-11-09T03:06:18.719Z,9.34
2017-11-09T03:07:18.751Z,9.29
2017-11-09T03:08:18.751Z,9.31
2017-11-09T03:09:18.774Z,9.23
2017-11-09T03:10:18.787Z,9.28
2017-11-09T03:11:18.795Z,9.31
2017-11-09T03:12:18.813Z,9.36
2017-11-09T03:13:18.827Z,9.18
2017-11-09T03:14:18.843Z,9.18
2017-11-09T03:15:18.861Z,9.22
2017-11-09T03:16:18.875Z,9.18
2017-11-09T03:17:18.889Z,9.18
2017-11-09T03:18:18.909Z,9.04
2017-11-09T03:19:18.926Z,9.11
2017-11-09T03:20:18.938Z,9.08
2017-11-09T03:21:18.955Z,9.14
2017-11-09T03:22:18.974Z,9.22
2017-11-09T03:23:18.989Z,9.23
2017-11-09T03:24:19.005Z,9.32
2017-11-09T03:25:19.018Z,9.32
2017-11-09T03:26:19.033Z,9.34
2017-11-09T03:27:19.051Z,9.37
2017-11-09T03:28:19.077Z,9.23
2017-11-09T03:29:19.082Z,9.18
2017-11-09T03:30:19.098Z,9.25
2017-11-09T03:31:19.118Z,9.29
2017-11-09T03:32:19.128Z,9.36
2017-11-09T03:33:19.147Z,9.36
2017-11-09T03:34:19.163Z,9.25
2017-11-09T03:35:19.179Z,9.26
2017-11-09T03:36:19.193Z,9.36
2017-11-09T03:37:19.209Z,9.40
2017-11-09T03:38:19.229Z,9.43
2017-11-09T03:39:19.239Z,9.36
2017-11-09T03:40:19.258Z,9.50
2017-11-09T03:41:19.272Z,9.46
2017-11-09T03:42:19.289Z,9.51
2017-11-09T03:43:19.304Z,9.51
2017-11-09T03:44:19.319Z,9.32
2017-11-09T03:45:19.341Z,9.23
2017-11-09T03:46:19.359Z,9.31
2017-11-09T03:47:19.366Z,9.47
2017-11-09T03:48:19.397Z,9.51
2017-11-09T03:49:19.400Z,9.48
2017-11-09T03:50:19.421Z,9.40
2017-11-09T03:51:19.439Z,9.41
2017-11-09T03:52:19.447Z,9.34
2017-11-09T03:53:19.466Z,9.41
2017-11-09T03:54:19.478Z,9.41
2017-11-09T03:55:19.496Z,9.47
2017-11-09T03:56:19.513Z,9.56
2017-11-09T03:57:19.545Z,9.48
2017-11-09T03:58:19.543Z,9.43
2017-11-09T03:59:19.560Z,9.41
2017-11-09T04:00:19.577Z,9.54
2017-11-09T04:01:19.592Z,9.43
2017-11-09T04:02:19.608Z,9.39
2017-11-09T04:03:19.623Z,9.41
2017-11-09T04:04:19.640Z,9.47
2017-11-09T04:05:19.657Z,9.47
2017-11-09T04:06:19.672Z,9.54
2017-11-09T04:07:19.688Z,9.66
2017-11-09T04:08:19.703Z,9.54
2017-11-09T04:09:19.727Z,9.68
2017-11-09T04:10:19.738Z,9.46
2017-11-09T04:11:19.753Z,9.37
2017-11-09T04:12:19.770Z,9.39
2017-11-09T04:13:19.785Z,9.23
2017-11-09T04:14:19.802Z,9.23
2017-11-09T04:15:19.817Z,9.19
2017-11-09T04:16:19.830Z,9.18
2017-11-09T04:17:19.853Z,8.89
2017-11-09T04:18:19.864Z,9.00
2017-11-09T04:19:19.888Z,8.99
2017-11-09T04:20:19.897Z,9.04
2017-11-09T04:21:19.913Z,8.99
2017-11-09T04:22:19.927Z,9.04
2017-11-09T04:23:19.945Z,9.11
2017-11-09T04:24:19.960Z,9.21
2017-11-09T04:25:19.978Z,9.32
2017-11-09T04:26:19.996Z,9.32
2017-11-09T04:27:20.011Z,9.32
2017-11-09T04:28:20.023Z,9.21
2017-11-09T04:29:20.041Z,9.23
2017-11-09T04:30:20.056Z,9.37
2017-11-09T04:31:20.070Z,9.48
2017-11-09T04:32:20.092Z,9.51
2017-11-09T04:33:20.107Z,9.54
2017-11-09T04:34:20.121Z,9.48
2017-11-09T04:35:20.137Z,9.54
2017-11-09T04:36:20.154Z,9.56
2017-11-09T04:37:20.171Z,9.58
2017-11-09T04:38:20.186Z,9.56
2017-11-09T04:39:20.200Z,9.61
2017-11-09T04:40:20.227Z,9.65
2017-11-09T04:41:20.234Z,9.68
2017-11-09T04:42:20.256Z,9.66
2017-11-09T04:43:20.267Z,9.61
2017-11-09T04:44:20.290Z,9.69
2017-11-09T04:45:20.306Z,9.59
2017-11-09T04:46:20.314Z,9.51
2017-11-09T04:47:20.329Z,9.39
2017-11-09T04:48:20.345Z,9.56
2017-11-09T04:49:20.362Z,9.56
2017-11-09T04:50:20.379Z,9.62
2017-11-09T04:51:20.397Z,9.62
2017-11-09T04:52:20.408Z,9.64
2017-11-09T04:53:20.427Z,9.64
2017-11-09T04:54:20.441Z,9.50
2017-11-09T04:55:20.457Z,9.62
2017-11-09T04:56:20.473Z,9.55
2017-11-09T04:57:20.492Z,9.64
2017-11-09T04:58:20.505Z,9.62
2017-11-09T04:59:20.519Z,9.68
2017-11-09T05:00:20.537Z,9.64
2017-11-09T05:01:20.555Z,9.58
2017-11-09T05:02:20.568Z,9.59
2017-11-09T05:03:20.588Z,9.62
2017-11-09T05:04:20.609Z,9.59
2017-11-09T05:05:20.618Z,9.68
2017-11-09T05:06:20.631Z,9.62
2017-11-09T05:07:20.650Z,9.68
2017-11-09T05:08:20.666Z,9.65
2017-11-09T05:09:20.682Z,9.55
2017-11-09T05:10:20.701Z,9.44
2017-11-09T05:11:20.727Z,9.34
2017-11-09T05:12:20.735Z,9.40
2017-11-09T05:13:20.749Z,9.41
2017-11-09T05:14:20.764Z,9.40
2017-11-09T05:15:20.777Z,9.34
2017-11-09T05:16:20.801Z,9.54
2017-11-09T05:17:20.835Z,9.47
2017-11-09T05:18:20.830Z,9.61
2017-11-09T05:19:20.844Z,9.65
2017-11-09T05:20:20.863Z,9.56
2017-11-09T05:21:20.882Z,9.55
2017-11-09T05:22:20.897Z,9.43
2017-11-09T05:23:20.907Z,9.26
2017-11-09T05:24:20.922Z,9.29
2017-11-09T05:25:20.946Z,9.13
2017-11-09T05:26:20.958Z,9.08
2017-11-09T05:27:20.972Z,9.04
2017-11-09T05:28:20.987Z,9.16
2017-11-09T05:29:21.008Z,9.08
2017-11-09T05:30:21.020Z,9.22
2017-11-09T05:31:21.037Z,9.03
2017-11-09T05:32:21.058Z,9.06
2017-11-09T05:33:21.072Z,8.81
2017-11-09T05:34:21.086Z,8.66
2017-11-09T05:35:21.101Z,8.58
2017-11-09T05:36:21.117Z,8.49
2017-11-09T05:37:21.135Z,8.70
2017-11-09T05:38:21.150Z,8.78
2017-11-09T05:39:21.165Z,8.82
2017-11-09T05:40:21.184Z,8.92
2017-11-09T05:41:21.195Z,8.92
2017-11-09T05:42:21.214Z,9.10
2017-11-09T05:43:21.227Z,9.23
2017-11-09T05:44:21.242Z,9.26
2017-11-09T05:45:21.263Z,9.28
2017-11-09T05:46:21.276Z,9.29
2017-11-09T05:47:21.291Z,9.28
2017-11-09T05:48:21.312Z,9.32
2017-11-09T05:49:21.326Z,9.41
2017-11-09T05:50:21.341Z,9.34
2017-11-09T05:51:21.356Z,9.46
2017-11-09T05:52:21.371Z,9.55
2017-11-09T05:53:21.387Z,9.58
2017-11-09T05:54:21.407Z,9.55
2017-11-09T05:55:21.419Z,9.58
2017-11-09T05:56:21.437Z,9.66
2017-11-09T05:57:21.458Z,9.54
2017-11-09T05:58:21.472Z,9.64
2017-11-09T05:59:21.486Z,9.65
2017-11-09T06:00:21.502Z,9.62
2017-11-09T06:01:21.515Z,9.65
2017-11-09T06:02:21.530Z,9.64
2017-11-09T06:03:21.546Z,9.61
2017-11-09T06:04:21.564Z,9.65
2017-11-09T06:05:21.582Z,9.61
2017-11-09T06:06:21.598Z,9.54
2017-11-09T06:07:21.613Z,9.36
2017-11-09T06:08:21.627Z,9.22
2017-11-09T06:09:21.645Z,9.26
2017-11-09T06:10:21.665Z,9.36
2017-11-09T06:11:21.677Z,9.46
2017-11-09T06:12:21.694Z,9.32
2017-11-09T06:13:21.709Z,9.25
2017-11-09T06:14:21.725Z,9.31
2017-11-09T06:15:21.742Z,9.22
2017-11-09T06:16:21.757Z,9.08
2017-11-09T06:17:21.773Z,9.13
2017-11-09T06:18:21.790Z,9.16
2017-11-09T06:19:21.806Z,9.25
2017-11-09T06:20:21.820Z,9.32
2017-11-09T06:21:21.835Z,9.41
2017-11-09T06:22:21.855Z,9.43
2017-11-09T06:23:21.872Z,9.55
2017-11-09T06:24:21.885Z,9.50
2017-11-09T06:25:21.901Z,9.58
2017-11-09T06:26:21.916Z,9.64
2017-11-09T06:27:21.938Z,9.59
2017-11-09T06:28:21.954Z,9.64
2017-11-09T06:29:21.971Z,9.69
2017-11-09T06:30:21.981Z,9.55
2017-11-09T06:31:21.998Z,9.73
2017-11-09T06:32:22.013Z,9.73
2017-11-09T06:33:22.031Z,9.72
2017-11-09T06:34:22.048Z,9.64
2017-11-09T06:35:22.063Z,9.54
2017-11-09T06:36:22.095Z,9.65
2017-11-09T06:37:22.097Z,9.64
2017-11-09T06:38:22.118Z,9.69
2017-11-09T06:39:22.131Z,9.68
2017-11-09T06:40:22.144Z,9.74
2017-11-09T06:41:22.157Z,9.77
2017-11-09T06:42:22.174Z,9.72
2017-11-09T06:43:22.190Z,9.77
2017-11-09T06:44:22.206Z,9.69
2017-11-09T06:45:22.223Z,9.80
2017-11-09T06:46:22.240Z,9.74
2017-11-09T06:47:22.255Z,9.79
2017-11-09T06:48:22.272Z,9.77
2017-11-09T06:49:22.289Z,9.69
2017-11-09T06:50:22.306Z,9.62
2017-11-09T06:51:22.317Z,9.62
2017-11-09T06:52:22.338Z,9.55
2017-11-09T06:53:22.354Z,9.62
2017-11-09T06:54:22.378Z,9.68
2017-11-09T06:55:22.382Z,9.82
2017-11-09T06:56:22.398Z,9.72
2017-11-09T06:57:22.416Z,9.80
2017-11-09T06:58:22.434Z,9.77
2017-11-09T06:59:22.449Z,9.80
2017-11-09T07:00:22.467Z,9.76
2017-11-09T07:01:22.481Z,9.72
2017-11-09T07:02:22.498Z,9.87
2017-11-09T07:03:22.520Z,9.86
2017-11-09T07:04:22.530Z,9.80
2017-11-09T07:05:22.546Z,9.86
2017-11-09T07:06:22.561Z,9.89
2017-11-09T07:07:22.577Z,9.86
2017-11-09T07:08:22.600Z,9.89
2017-11-09T07:09:22.611Z,9.91
2017-11-09T07:10:22.627Z,9.89
2017-11-09T07:11:22.643Z,9.74
2017-11-09T07:12:22.664Z,9.79
2017-11-09T07:13:22.675Z,9.74
2017-11-09T07:14:22.694Z,9.84
2017-11-09T07:15:22.708Z,9.86
2017-11-09T07:16:22.722Z,9.87
2017-11-09T07:17:22.744Z,9.77
2017-11-09T07:18:22.758Z,9.86
2017-11-09T07:19:22.774Z,9.73
2017-11-09T07:20:22.790Z,9.83
2017-11-09T07:21:22.804Z,9.74
2017-11-09T07:22:22.824Z,9.62
2017-11-09T07:23:22.855Z,9.59
2017-11-09T07:24:22.856Z,9.72
2017-11-09T07:25:22.871Z,9.74
2017-11-09T07:26:22.894Z,9.91
2017-11-09T07:27:22.901Z,9.77
2017-11-09T07:28:22.917Z,9.92
2017-11-09T07:29:22.935Z,9.98
2017-11-09T07:30:22.955Z,9.89
2017-11-09T07:31:22.966Z,10.01
2017-11-09T07:32:22.983Z,10.02
2017-11-09T07:33:23.004Z,10.07
2017-11-09T07:34:23.017Z,9.97
2017-11-09T07:35:23.031Z,9.83
2017-11-09T07:36:23.048Z,9.69
2017-11-09T07:37:23.066Z,9.76
2017-11-09T07:38:23.081Z,9.65
2017-11-09T07:39:23.096Z,9.68
2017-11-09T07:40:23.115Z,9.64
2017-11-09T07:41:23.132Z,9.69
2017-11-09T07:42:23.151Z,9.72
2017-11-09T07:43:23.165Z,9.66
2017-11-09T07:44:23.179Z,9.69
2017-11-09T07:45:23.203Z,9.65
2017-11-09T07:46:23.227Z,9.48
2017-11-09T07:47:23.229Z,9.39
2017-11-09T07:48:23.243Z,9.56
2017-11-09T07:49:23.262Z,9.41
2017-11-09T07:50:23.277Z,9.47
2017-11-09T07:51:23.302Z,9.34
2017-11-09T07:52:23.309Z,9.32
2017-11-09T07:53:23.325Z,9.34
2017-11-09T07:54:23.343Z,9.54
2017-11-09T07:55:23.362Z,9.36
2017-11-09T07:56:23.377Z,9.46
2017-11-09T07:57:23.389Z,9.55
2017-11-09T07:58:23.414Z,9.56
2017-11-09T07:59:23.425Z,9.62
2017-11-09T08:00:23.445Z,9.59
2017-11-09T08:01:23.458Z,9.74
2017-11-09T08:02:23.475Z,9.65
2017-11-09T08:03:23.490Z,9.69
2017-11-09T08:04:23.502Z,9.82
2017-11-09T08:05:23.521Z,9.79
2017-11-09T08:06:23.537Z,9.76
2017-11-09T08:07:23.554Z,9.89
2017-11-09T08:08:23.567Z,9.98
2017-11-09T08:09:23.584Z,9.86
2017-11-09T08:10:23.606Z,9.87
2017-11-09T08:11:23.615Z,9.91
2017-11-09T08:12:23.633Z,9.89
2017-11-09T08:13:23.650Z,9.89
2017-11-09T08:14:23.670Z,9.80
2017-11-09T08:15:23.683Z,9.94
2017-11-09T08:16:23.701Z,9.94
2017-11-09T08:17:23.716Z,9.89
2017-11-09T08:18:23.732Z,9.64
2017-11-09T08:19:23.748Z,9.74
2017-11-09T08:20:23.761Z,9.97
2017-11-09T08:21:23.780Z,10.10
2017-11-09T08:22:23.802Z,10.16
2017-11-09T08:23:23.818Z,10.16
2017-11-09T08:24:23.829Z,10.25
2017-11-09T08:25:23.849Z,10.35
2017-11-09T08:26:23.862Z,10.51
2017-11-09T08:27:23.878Z,10.54
2017-11-09T08:28:23.900Z,10.41
2017-11-09T08:29:23.911Z,10.56
2017-11-09T08:30:23.926Z,10.63
2017-11-09T08:31:23.948Z,10.69
2017-11-09T08:32:23.961Z,10.63
2017-11-09T08:33:23.979Z,10.61
2017-11-09T08:34:23.993Z,10.67
2017-11-09T08:35:24.008Z,10.67
2017-11-09T08:36:24.026Z,10.69
2017-11-09T08:37:24.042Z,10.68
2017-11-09T08:38:24.059Z,10.60
2017-11-09T08:39:24.085Z,10.68
2017-11-09T08:40:24.097Z,10.51
2017-11-09T08:41:24.108Z,10.49
2017-11-09T08:42:24.127Z,10.59
2017-11-09T08:43:24.142Z,10.56
2017-11-09T08:44:24.159Z,10.42
2017-11-09T08:45:24.175Z,10.54
2017-11-09T08:46:24.193Z,10.44
2017-11-09T08:47:24.206Z,10.61
2017-11-09T08:48:24.225Z,10.67
2017-11-09T08:49:24.241Z,10.59
2017-11-09T08:50:24.264Z,10.54
2017-11-09T08:51:24.274Z,10.54
2017-11-09T08:52:24.290Z,10.53
2017-11-09T08:53:24.308Z,10.38
2017-11-09T08:54:24.324Z,10.42
2017-11-09T08:55:24.341Z,10.56
2017-11-09T08:56:24.361Z,10.56
2017-11-09T08:57:24.371Z,10.56
2017-11-09T08:58:24.391Z,10.59
2017-11-09T08:59:24.406Z,10.56
2017-11-09T09:00:24.425Z,10.49
2017-11-09T09:01:24.440Z,10.61
2017-11-09T09:02:24.457Z,10.63
2017-11-09T09:03:24.471Z,10.60
2017-11-09T09:04:24.488Z,10.68
2017-11-09T09:05:24.505Z,10.68
2017-11-09T09:06:24.520Z,10.61
2017-11-09T09:07:24.536Z,10.63
2017-11-09T09:08:24.555Z,10.49
2017-11-09T09:09:24.578Z,10.57
2017-11-09T09:10:24.588Z,10.64
2017-11-09T09:11:24.605Z,10.64
2017-11-09T09:12:24.621Z,10.63
2017-11-09T09:13:24.636Z,10.61
2017-11-09T09:14:24.654Z,10.57
2017-11-09T09:15:24.668Z,10.71
2017-11-09T09:16:24.687Z,10.51
2017-11-09T09:17:24.704Z,10.56
2017-11-09T09:18:24.720Z,10.59
2017-11-09T09:19:24.748Z,10.64
2017-11-09T09:20:24.752Z,10.68
2017-11-09T09:21:24.771Z,10.78
2017-11-09T09:22:24.784Z,10.76
2017-11-09T09:23:24.800Z,10.71
2017-11-09T09:24:24.820Z,10.84
2017-11-09T09:25:24.835Z,10.92
2017-11-09T09:26:24.853Z,11.04
2017-11-09T09:27:24.881Z,10.93
2017-11-09T09:28:24.892Z,10.96
2017-11-09T09:29:24.901Z,10.90
2017-11-09T09:30:24.918Z,10.93
2017-11-09T09:31:24.947Z,11.02
2017-11-09T09:32:24.951Z,11.07
2017-11-09T09:33:24.966Z,11.12
2017-11-09T09:34:24.995Z,11.00
2017-11-09T09:35:25.004Z,11.12
2017-11-09T09:36:25.017Z,11.04
2017-11-09T09:37:25.036Z,11.11
2017-11-09T09:38:25.051Z,11.11
2017-11-09T09:39:25.068Z,11.18
2017-11-09T09:40:25.086Z,11.05
2017-11-09T09:41:25.104Z,11.11
2017-11-09T09:42:25.119Z,10.93
2017-11-09T09:43:25.136Z,11.07
2017-11-09T09:44:25.155Z,11.00
2017-11-09T09:45:25.169Z,11.05
2017-11-09T09:46:25.191Z,11.04
2017-11-09T09:47:25.202Z,11.02
2017-11-09T09:48:25.221Z,10.96
2017-11-09T09:49:25.236Z,11.10
2017-11-09T09:50:25.254Z,11.08
2017-11-09T09:51:25.273Z,11.11
2017-11-09T09:52:25.289Z,10.93
2017-11-09T09:53:25.306Z,10.56
2017-11-09T09:54:25.322Z,10.41
2017-11-09T09:55:25.337Z,10.57
2017-11-09T09:56:25.366Z,10.81
2017-11-09T09:57:25.371Z,11.04
2017-11-09T09:58:25.390Z,11.04
2017-11-09T09:59:25.404Z,11.05
2017-11-09T10:00:25.422Z,11.07
2017-11-09T10:01:25.437Z,11.02
2017-11-09T10:02:25.458Z,10.94
2017-11-09T10:03:25.470Z,10.59
2017-11-09T10:04:25.490Z,10.60
2017-11-09T10:05:25.504Z,10.68
2017-11-09T10:06:25.524Z,10.67
2017-11-09T10:07:25.560Z,10.56
2017-11-09T10:08:25.559Z,10.75
2017-11-09T10:09:25.572Z,10.89
2017-11-09T10:10:25.590Z,11.07
2017-11-09T10:11:25.731Z,11.11
2017-11-09T10:12:25.622Z,11.35
2017-11-09T10:13:25.644Z,11.35
2017-11-09T10:14:25.661Z,11.40
2017-11-09T10:15:25.676Z,11.11
2017-11-09T10:16:25.690Z,11.17
2017-11-09T10:17:25.715Z,11.45
2017-11-09T10:18:25.726Z,11.40
2017-11-09T10:19:25.761Z,11.41
2017-11-09T10:20:25.764Z,11.55
2017-11-09T10:21:25.779Z,11.84
2017-11-09T10:22:25.797Z,11.66
2017-11-09T10:23:25.811Z,11.83
2017-11-09T10:24:25.830Z,11.90
2017-11-09T10:25:25.999Z,12.02
2017-11-09T10:26:25.864Z,12.00
2017-11-09T10:27:25.884Z,12.03
2017-11-09T10:28:25.898Z,12.02
2017-11-09T10:29:25.918Z,12.02
2017-11-09T10:30:25.934Z,11.87
2017-11-09T10:31:25.952Z,11.68
2017-11-09T10:32:25.969Z,12.03
2017-11-09T10:33:25.987Z,12.12
2017-11-09T10:34:26.005Z,11.80
2017-11-09T10:35:26.029Z,11.62
2017-11-09T10:36:26.041Z,11.65
2017-11-09T10:37:26.059Z,11.83
2017-11-09T10:38:26.075Z,11.66
2017-11-09T10:39:26.090Z,11.54
2017-11-09T10:40:26.108Z,11.68
2017-11-09T10:41:26.129Z,11.72
2017-11-09T10:42:26.148Z,11.73
2017-11-09T10:43:26.160Z,11.78
2017-11-09T10:44:26.186Z,11.83
2017-11-09T10:45:26.197Z,11.69
2017-11-09T10:46:26.214Z,11.70
2017-11-09T10:47:26.235Z,11.95
2017-11-09T10:48:26.251Z,12.03
2017-11-09T10:49:26.271Z,12.04
2017-11-09T10:50:26.285Z,11.94
2017-11-09T10:51:26.299Z,11.91
2017-11-09T10:52:26.320Z,12.02
2017-11-09T10:53:26.338Z,12.00
2017-11-09T10:54:26.352Z,12.07
2017-11-09T10:55:26.372Z,12.02
2017-11-09T10:56:26.389Z,12.09
2017-11-09T10:57:26.409Z,11.78
2017-11-09T10:58:26.422Z,11.80
2017-11-09T10:59:26.438Z,11.78
2017-11-09T11:00:26.459Z,11.73
2017-11-09T11:01:26.475Z,11.62
2017-11-09T11:02:26.493Z,11.65
2017-11-09T11:03:26.517Z,11.43
2017-11-09T11:04:26.538Z,11.60
2017-11-09T11:05:26.546Z,11.36
2017-11-09T11:06:26.563Z,11.50
2017-11-09T11:07:26.579Z,11.55
2017-11-09T11:08:26.605Z,11.84
2017-11-09T11:09:26.618Z,11.84
2017-11-09T11:10:26.636Z,11.97
2017-11-09T11:11:26.650Z,12.02
2017-11-09T11:12:26.666Z,12.06
2017-11-09T11:13:26.686Z,11.94
2017-11-09T11:14:26.701Z,11.72
2017-11-09T11:15:26.720Z,11.80
2017-11-09T11:16:26.738Z,11.78
2017-11-09T11:17:26.756Z,11.95
2017-11-09T11:18:26.775Z,12.04
2017-11-09T11:19:26.787Z,12.12
2017-11-09T11:20:26.808Z,12.31
2017-11-09T11:21:26.823Z,12.29
2017-11-09T11:22:26.843Z,12.17
2017-11-09T11:23:26.871Z,12.45
2017-11-09T11:24:26.879Z,12.37
2017-11-09T11:25:26.893Z,12.54
2017-11-09T11:26:26.910Z,12.62
2017-11-09T11:27:26.929Z,12.67
2017-11-09T11:28:26.944Z,12.36
2017-11-09T11:29:26.964Z,12.21
2017-11-09T11:30:26.984Z,11.95
2017-11-09T11:31:27.000Z,11.83
2017-11-09T11:32:27.020Z,12.10
2017-11-09T11:33:27.037Z,12.22
2017-11-09T11:34:27.057Z,12.20
2017-11-09T11:35:27.069Z,12.20
2017-11-09T11:36:27.089Z,11.94
2017-11-09T11:37:27.104Z,11.72
2017-11-09T11:38:27.124Z,11.69
2017-11-09T11:39:27.140Z,11.63
2017-11-09T11:40:27.164Z,11.83
2017-11-09T11:41:27.174Z,12.02
2017-11-09T11:42:27.194Z,11.94
2017-11-09T11:43:27.208Z,11.70
2017-11-09T11:44:27.232Z,11.91
2017-11-09T11:45:27.243Z,12.28
2017-11-09T11:46:27.263Z,12.27
2017-11-09T11:47:27.283Z,12.12
2017-11-09T11:48:27.320Z,12.17
2017-11-09T11:49:27.313Z,12.00
2017-11-09T11:50:27.333Z,11.80
2017-11-09T11:51:27.349Z,11.68
2017-11-09T11:52:27.371Z,11.94
2017-11-09T11:53:27.386Z,12.07
2017-11-09T11:54:27.405Z,12.12
2017-11-09T11:55:27.421Z,11.94
2017-11-09T11:56:27.439Z,12.03
2017-11-09T11:57:27.456Z,12.20
2017-11-09T11:58:27.474Z,12.20
2017-11-09T11:59:27.491Z,12.18
2017-11-09T12:00:27.508Z,12.10
2017-11-09T12:01:27.535Z,12.20
2017-11-09T12:02:27.543Z,11.94
2017-11-09T12:03:27.559Z,11.84
2017-11-09T12:04:27.581Z,11.70
2017-11-09T12:05:27.595Z,11.87
2017-11-09T12:06:27.620Z,12.07
2017-11-09T12:07:27.632Z,12.09
2017-11-09T12:08:27.647Z,12.13
2017-11-09T12:09:27.668Z,12.22
2017-11-09T12:10:27.687Z,12.27
2017-11-09T12:11:27.715Z,12.29
2017-11-09T12:12:27.720Z,12.09
2017-11-09T12:13:27.735Z,12.03
2017-11-09T12:14:27.753Z,11.77
2017-11-09T12:15:27.769Z,11.91
2017-11-09T12:16:27.790Z,12.09
2017-11-09T12:17:27.807Z,12.06
2017-11-09T12:18:27.824Z,12.24
2017-11-09T12:19:27.842Z,12.12
2017-11-09T12:20:27.859Z,11.84
2017-11-09T12:21:27.877Z,11.69
2017-11-09T12:22:27.894Z,11.91
2017-11-09T12:23:27.911Z,11.66
2017-11-09T12:24:27.933Z,11.43
2017-11-09T12:25:27.945Z,11.50
2017-11-09T12:26:27.965Z,11.70
2017-11-09T12:27:27.983Z,11.70
2017-11-09T12:28:27.997Z,11.68
2017-11-09T12:29:28.021Z,11.48
2017-11-09T12:30:28.036Z,11.51
2017-11-09T12:31:28.051Z,11.43
2017-11-09T12:32:28.079Z,11.47
2017-11-09T12:33:28.083Z,11.47
2017-11-09T12:34:28.105Z,11.62
2017-11-09T12:35:28.116Z,11.50
2017-11-09T12:36:28.138Z,11.54
2017-11-09T12:37:28.159Z,11.66
2017-11-09T12:38:28.169Z,11.63
2017-11-09T12:39:28.195Z,11.52
2017-11-09T12:40:28.204Z,11.69
2017-11-09T12:41:28.222Z,11.66
2017-11-09T12:42:28.250Z,11.65
2017-11-09T12:43:28.256Z,11.84
2017-11-09T12:44:28.275Z,11.94
2017-11-09T12:45:28.289Z,11.84
2017-11-09T12:46:28.309Z,11.90
2017-11-09T12:47:28.324Z,11.95
2017-11-09T12:48:28.342Z,11.97
2017-11-09T12:49:28.364Z,12.07
2017-11-09T12:50:28.378Z,12.10
2017-11-09T12:51:28.393Z,12.20
2017-11-09T12:52:28.412Z,12.22
2017-11-09T12:53:28.430Z,12.21
2017-11-09T12:54:28.451Z,12.12
2017-11-09T12:55:28.461Z,12.22
2017-11-09T12:56:28.487Z,12.21
2017-11-09T12:57:28.498Z,11.94
2017-11-09T12:58:28.514Z,11.80
2017-11-09T12:59:28.533Z,12.00
2017-11-09T13:00:28.547Z,12.12
2017-11-09T13:01:28.566Z,12.00
2017-11-09T13:02:28.583Z,12.00
2017-11-09T13:03:28.603Z,12.04
2017-11-09T13:04:28.638Z,12.09
2017-11-09T13:05:28.637Z,12.21
2017-11-09T13:06:28.655Z,12.13
2017-11-09T13:07:28.669Z,12.21
2017-11-09T13:08:28.689Z,12.28